Time;durP1;ratioP1;P1;durP2;ratioP2;P2;SDS_P1;SDS_P2;PMS_P1;PMS_P2;Temp;Humidity;BMP_temperature;BMP_pressure;BME280_temperature;BME280_humidity;BME280_pressure;Samples;Min_cycle;Max_cycle;Signal;HPM_P1;HPM_P2
2023/06/29 00:01:33;;;;;;;3.55;2.63;;;23.20;48.30;;;;;;5017329;28;20286;-82
2023/06/29 00:04:01;;;;;;;2.60;2.40;;;23.20;48.30;;;;;;5033677;28;20286;-82
2023/06/29 00:06:31;;;;;;;4.13;2.50;;;23.10;48.20;;;;;;5033448;28;20203;-82
2023/06/29 00:09:00;;;;;;;4.05;2.50;;;23.10;48.20;;;;;;5017499;28;20220;-82
2023/06/29 00:11:27;;;;;;;3.03;2.50;;;23.10;48.20;;;;;;5033160;28;20199;-82
2023/06/29 00:13:55;;;;;;;2.95;2.50;;;23.10;48.30;;;;;;5033192;28;20203;-82
2023/06/29 00:16:22;;;;;;;2.58;2.38;;;23.10;48.30;;;;;;5032704;28;20220;-82
2023/06/29 00:18:50;;;;;;;2.53;2.28;;;23.10;48.30;;;;;;5036061;28;20228;-82
2023/06/29 00:21:17;;;;;;;2.63;2.25;;;23.10;48.30;;;;;;5036173;28;20548;-83
2023/06/29 00:23:45;;;;;;;3.58;2.70;;;23.10;48.30;;;;;;5033488;28;20283;-83
2023/06/29 00:26:16;;;;;;;2.92;2.55;;;23.10;48.30;;;;;;5033641;28;20200;-83
2023/06/29 00:28:44;;;;;;;2.85;2.55;;;23.00;48.20;;;;;;5033834;28;20277;-83
2023/06/29 00:31:10;;;;;;;3.25;2.85;;;23.00;48.20;;;;;;5034526;28;20200;-83
2023/06/29 00:33:38;;;;;;;2.58;2.38;;;23.00;48.30;;;;;;5033991;28;20206;-83
2023/06/29 00:36:06;;;;;;;3.58;2.67;;;23.00;48.30;;;;;;5034720;28;20303;-83
2023/06/29 00:38:33;;;;;;;3.22;2.53;;;23.00;48.30;;;;;;5035233;28;20236;-83
2023/06/29 00:41:00;;;;;;;2.80;2.25;;;23.00;48.30;;;;;;5035168;28;20193;-83
2023/06/29 00:43:29;;;;;;;2.70;2.47;;;23.00;48.30;;;;;;5035059;28;20602;-83
2023/06/29 00:45:56;;;;;;;2.78;2.58;;;23.00;48.40;;;;;;5038180;28;20288;-83
2023/06/29 00:48:24;;;;;;;3.63;2.55;;;23.00;48.40;;;;;;5039616;28;20220;-83
2023/06/29 00:50:51;;;;;;;3.55;2.40;;;22.90;48.40;;;;;;5039008;28;20250;-83
2023/06/29 00:53:18;;;;;;;2.47;2.28;;;22.90;48.50;;;;;;5039379;28;20283;-83
2023/06/29 00:55:45;;;;;;;2.83;2.50;;;22.90;48.50;;;;;;5038820;28;20267;-83
2023/06/29 00:58:13;;;;;;;2.70;2.50;;;22.90;48.40;;;;;;5039240;28;20204;-83
2023/06/29 01:00:41;;;;;;;2.80;2.60;;;22.90;48.50;;;;;;5038373;28;20291;-83
2023/06/29 01:03:11;;;;;;;3.42;2.55;;;22.90;48.50;;;;;;5039110;28;20196;-83
2023/06/29 01:05:41;;;;;;;3.00;2.70;;;22.80;48.40;;;;;;5038856;28;20203;-83
2023/06/29 01:08:10;;;;;;;3.08;2.30;;;22.90;48.50;;;;;;5022220;28;20287;-83
2023/06/29 01:10:39;;;;;;;2.95;2.65;;;22.90;48.60;;;;;;5038936;28;20613;-83
2023/06/29 01:13:07;;;;;;;3.08;2.65;;;22.80;48.50;;;;;;5022927;28;20196;-83
2023/06/29 01:15:34;;;;;;;3.40;2.50;;;22.80;48.60;;;;;;5021865;28;20647;-83
2023/06/29 01:18:03;;;;;;;2.50;2.30;;;22.80;48.30;;;;;;5036934;28;20220;-83
2023/06/29 01:20:31;;;;;;;2.70;2.50;;;22.80;48.60;;;;;;5037089;28;20196;-83
2023/06/29 01:23:00;;;;;;;2.67;2.42;;;22.80;48.50;;;;;;5037497;28;20567;-83
2023/06/29 01:25:29;;;;;;;2.70;2.50;;;22.80;48.50;;;;;;5038382;28;20227;-83
2023/06/29 01:27:57;;;;;;;2.50;2.30;;;22.80;48.70;;;;;;5037471;28;20192;-83
2023/06/29 01:30:24;;;;;;;2.60;2.40;;;22.80;48.70;;;;;;5037393;28;20223;-83
2023/06/29 01:32:51;;;;;;;2.40;2.20;;;22.70;48.60;;;;;;5038557;28;20232;-83
2023/06/29 01:35:21;;;;;;;2.72;2.53;;;22.70;48.60;;;;;;5038483;28;20230;-83
2023/06/29 01:38:07;;;;;;;2.78;2.58;;;22.70;48.60;;;;;;5037757;28;20223;-83
2023/06/29 01:40:36;;;;;;;2.60;2.40;;;22.70;48.70;;;;;;5038264;28;20215;-83
2023/06/29 01:43:03;;;;;;;3.03;2.60;;;22.70;48.70;;;;;;5037538;28;20206;-83
2023/06/29 01:45:30;;;;;;;2.97;2.40;;;22.70;48.80;;;;;;5037232;28;20208;-83
2023/06/29 01:47:58;;;;;;;2.63;2.42;;;22.70;48.80;;;;;;5038157;28;20307;-83
2023/06/29 01:50:25;;;;;;;2.65;2.38;;;22.60;48.60;;;;;;5037099;28;20341;-83
2023/06/29 01:52:52;;;;;;;2.78;2.58;;;22.60;48.70;;;;;;5036942;28;20211;-83
2023/06/29 01:55:20;;;;;;;2.90;2.60;;;22.70;48.80;;;;;;5036254;28;20375;-83
2023/06/29 01:57:49;;;;;;;2.90;2.60;;;22.60;48.70;;;;;;5037143;28;20227;-83
2023/06/29 02:00:16;;;;;;;2.53;2.33;;;22.60;48.70;;;;;;5019820;28;20231;-83
2023/06/29 02:02:44;;;;;;;3.83;2.80;;;22.60;48.70;;;;;;5038204;28;20283;-83
2023/06/29 02:05:11;;;;;;;3.15;2.60;;;22.60;48.70;;;;;;5036542;28;20313;-83
2023/06/29 02:07:40;;;;;;;3.03;2.42;;;22.60;48.70;;;;;;5036875;28;20253;-83
2023/06/29 02:10:08;;;;;;;2.90;2.60;;;22.60;48.70;;;;;;5035506;28;20230;-82
2023/06/29 02:12:35;;;;;;;3.28;2.40;;;22.60;48.70;;;;;;5035732;28;20670;-82
2023/06/29 02:15:05;;;;;;;3.20;2.78;;;22.60;48.70;;;;;;5036377;28;20220;-82
2023/06/29 02:17:32;;;;;;;3.72;2.63;;;22.50;48.70;;;;;;5035169;28;20220;-82
2023/06/29 02:20:00;;;;;;;2.50;2.10;;;22.50;48.70;;;;;;5036361;28;20216;-82
2023/06/29 02:22:27;;;;;;;3.15;2.50;;;22.50;48.70;;;;;;5035385;28;20655;-82
2023/06/29 02:24:54;;;;;;;2.85;2.55;;;22.50;48.70;;;;;;5035285;28;20196;-82
2023/06/29 02:27:21;;;;;;;2.53;2.33;;;22.50;48.80;;;;;;5034819;28;20192;-82
2023/06/29 02:29:49;;;;;;;3.00;2.58;;;22.50;48.80;;;;;;5017663;28;20239;-82
2023/06/29 02:32:18;;;;;;;2.58;2.38;;;22.50;48.80;;;;;;5034291;28;20231;-82
2023/06/29 02:34:45;;;;;;;2.50;2.30;;;22.50;48.80;;;;;;5036335;28;20749;-82
2023/06/29 02:37:13;;;;;;;3.03;2.60;;;22.50;48.90;;;;;;5036626;28;20621;-83
2023/06/29 02:39:41;;;;;;;2.97;2.42;;;22.50;48.90;;;;;;5037009;28;20289;-83
2023/06/29 02:42:08;;;;;;;3.03;2.45;;;22.40;48.70;;;;;;5036583;28;20200;-81
2023/06/29 02:44:35;;;;;;;2.88;2.60;;;22.40;48.70;;;;;;5021169;28;20196;-82
2023/06/29 02:47:03;;;;;;;2.85;2.58;;;22.40;48.90;;;;;;5037830;28;20192;-82
2023/06/29 02:49:34;;;;;;;3.00;2.53;;;22.40;48.80;;;;;;5037566;28;20212;-82
2023/06/29 02:52:01;;;;;;;3.03;2.50;;;22.40;48.80;;;;;;5037435;28;20203;-82
2023/06/29 02:54:28;;;;;;;2.75;2.47;;;22.30;48.90;;;;;;5036912;28;20267;-82
2023/06/29 02:56:56;;;;;;;3.28;2.63;;;22.40;48.90;;;;;;5036850;28;20274;-82
2023/06/29 02:59:23;;;;;;;3.83;2.67;;;22.40;48.90;;;;;;5036681;28;20237;-82
2023/06/29 03:01:50;;;;;;;3.10;2.72;;;22.40;49.50;;;;;;5035870;28;20251;-82
2023/06/29 03:04:18;;;;;;;3.33;2.70;;;22.30;48.70;;;;;;5034501;28;20295;-82
2023/06/29 03:06:47;;;;;;;3.38;2.80;;;22.30;48.80;;;;;;5034264;28;20196;-82
2023/06/29 03:09:14;;;;;;;3.10;2.83;;;22.30;48.90;;;;;;5035238;28;20600;-82
2023/06/29 03:11:41;;;;;;;2.78;2.55;;;22.30;48.80;;;;;;5035552;28;20643;-82
2023/06/29 03:14:09;;;;;;;2.88;2.67;;;22.30;48.90;;;;;;5035715;28;20200;-82
2023/06/29 03:16:36;;;;;;;2.88;2.67;;;22.30;49.00;;;;;;5036209;28;20705;-81
2023/06/29 03:19:03;;;;;;;2.70;2.50;;;22.30;49.10;;;;;;5036339;28;20226;-81
2023/06/29 03:21:31;;;;;;;3.28;2.97;;;22.30;49.10;;;;;;5035738;28;20302;-83
2023/06/29 03:23:59;;;;;;;5.18;2.63;;;22.30;49.10;;;;;;5035064;28;20258;-83
2023/06/29 03:26:26;;;;;;;2.67;2.40;;;22.40;49.10;;;;;;5035118;28;20200;-83
2023/06/29 03:28:53;;;;;;;3.15;2.90;;;22.40;49.10;;;;;;5035568;28;20629;-83
2023/06/29 03:31:20;;;;;;;2.80;2.60;;;22.40;49.10;;;;;;5035369;28;20293;-83
2023/06/29 03:33:47;;;;;;;3.60;2.80;;;22.50;48.90;;;;;;5035258;28;20227;-83
2023/06/29 03:36:15;;;;;;;3.13;2.83;;;22.50;48.90;;;;;;5036384;28;20203;-83
2023/06/29 03:38:42;;;;;;;3.10;2.80;;;22.50;48.80;;;;;;5034922;28;20220;-83
2023/06/29 03:41:10;;;;;;;3.00;2.67;;;22.50;48.70;;;;;;5035306;28;20552;-83
2023/06/29 03:43:38;;;;;;;3.20;2.90;;;22.50;48.70;;;;;;5034949;28;20199;-82
2023/06/29 03:46:05;;;;;;;3.58;3.00;;;22.60;48.70;;;;;;5018917;28;20200;-83
2023/06/29 03:48:32;;;;;;;3.58;2.65;;;22.50;48.60;;;;;;5048632;28;20212;-83
2023/06/29 03:50:59;;;;;;;2.90;2.70;;;22.50;48.40;;;;;;5036380;28;20200;-83
2023/06/29 03:53:26;;;;;;;3.28;2.55;;;22.50;48.40;;;;;;5054224;28;20179;-83
2023/06/29 03:55:53;;;;;;;3.97;2.90;;;22.60;48.40;;;;;;5051791;28;20200;-83
2023/06/29 03:58:22;;;;;;;2.72;2.53;;;22.60;48.50;;;;;;5033847;28;20244;-83
2023/06/29 04:00:50;;;;;;;2.78;2.50;;;22.60;48.40;;;;;;5042365;28;20238;-83
2023/06/29 04:03:17;;;;;;;3.10;2.80;;;22.60;48.40;;;;;;5038625;28;20223;-83
2023/06/29 04:05:44;;;;;;;2.90;2.63;;;22.60;48.40;;;;;;5037751;28;20196;-82
2023/06/29 04:08:12;;;;;;;2.97;2.70;;;22.60;48.40;;;;;;5037053;28;20202;-81
2023/06/29 04:10:39;;;;;;;3.00;2.70;;;22.60;48.40;;;;;;5037363;28;20259;-81
2023/06/29 04:13:05;;;;;;;2.70;2.50;;;22.60;48.30;;;;;;5038123;28;20207;-81
2023/06/29 04:15:34;;;;;;;2.65;2.45;;;22.60;48.40;;;;;;5036960;28;20271;-81
2023/06/29 04:18:01;;;;;;;3.40;2.80;;;22.60;48.20;;;;;;5039327;28;20246;-82
2023/06/29 04:20:29;;;;;;;3.05;2.58;;;22.60;48.40;;;;;;5023801;28;20195;-82
2023/06/29 04:22:56;;;;;;;3.10;2.80;;;22.60;48.40;;;;;;5038913;28;20625;-82
2023/06/29 04:25:23;;;;;;;3.10;2.80;;;22.50;48.30;;;;;;5039203;28;20196;-82
2023/06/29 04:27:50;;;;;;;2.70;2.50;;;22.60;48.40;;;;;;5037749;28;20192;-82
2023/06/29 04:30:17;;;;;;;3.03;2.65;;;22.60;48.50;;;;;;5037479;28;20230;-82
2023/06/29 04:32:46;;;;;;;3.75;2.63;;;22.50;48.40;;;;;;5037873;28;20650;-82
2023/06/29 04:35:15;;;;;;;3.00;2.70;;;22.60;48.40;;;;;;5038241;28;20204;-82
2023/06/29 04:37:42;;;;;;;3.20;2.90;;;22.50;48.40;;;;;;5037296;28;20265;-82
2023/06/29 04:40:12;;;;;;;2.78;2.50;;;22.60;48.50;;;;;;5037675;28;20219;-82
2023/06/29 04:42:45;;;;;;;2.63;2.42;;;22.60;48.50;;;;;;5037399;28;20203;-83
2023/06/29 04:45:17;;;;;;;2.47;2.28;;;22.60;48.50;;;;;;5023411;28;20206;-83
2023/06/29 04:47:47;;;;;;;2.80;2.60;;;22.70;48.60;;;;;;5039284;28;20173;-82
2023/06/29 04:50:14;;;;;;;2.95;2.60;;;22.70;48.70;;;;;;5037632;28;20220;-82
2023/06/29 04:52:42;;;;;;;2.80;2.60;;;22.80;48.70;;;;;;5037194;28;20622;-82
2023/06/29 04:55:10;;;;;;;3.38;2.50;;;23.00;48.50;;;;;;5020996;28;20582;-83
2023/06/29 04:57:37;;;;;;;2.60;2.40;;;23.10;48.30;;;;;;5036950;28;20270;-83
2023/06/29 05:00:10;;;;;;;2.97;2.60;;;23.30;48.00;;;;;;5037245;28;20227;-82
2023/06/29 05:02:38;;;;;;;2.67;2.47;;;23.40;47.70;;;;;;5037572;28;20294;-82
2023/06/29 05:05:07;;;;;;;2.90;2.65;;;23.60;47.40;;;;;;5036744;28;20291;-81
2023/06/29 05:07:35;;;;;;;2.92;2.50;;;23.80;47.10;;;;;;5037610;28;20211;-81
2023/06/29 05:10:02;;;;;;;4.15;3.50;;;23.90;46.90;;;;;;5038065;28;20224;-82
2023/06/29 05:12:30;;;;;;;5.43;3.80;;;23.70;47.40;;;;;;5037069;28;20242;-82
2023/06/29 05:14:57;;;;;;;4.10;3.17;;;23.50;48.00;;;;;;5036640;28;20577;-82
2023/06/29 05:17:25;;;;;;;5.32;3.72;;;23.30;48.60;;;;;;5020275;28;20200;-82
2023/06/29 05:19:52;;;;;;;5.10;3.75;;;23.20;49.00;;;;;;5003570;28;20223;-82
2023/06/29 05:22:21;;;;;;;5.03;3.78;;;23.20;49.20;;;;;;5036799;28;20207;-82
2023/06/29 05:24:48;;;;;;;4.07;3.47;;;23.00;49.70;;;;;;5036310;28;20196;-82
2023/06/29 05:27:15;;;;;;;3.80;3.40;;;22.80;50.10;;;;;;5036421;28;20655;-81
2023/06/29 05:29:42;;;;;;;4.50;3.35;;;22.70;50.20;;;;;;5036472;28;20223;-81
2023/06/29 05:32:09;;;;;;;5.60;3.60;;;22.80;50.70;;;;;;5021101;28;20208;-80
2023/06/29 05:34:37;;;;;;;5.10;3.83;;;22.90;50.10;;;;;;5036914;28;20227;-81
2023/06/29 05:37:05;;;;;;;6.55;4.05;;;23.00;49.90;;;;;;5036320;28;20192;-81
2023/06/29 05:39:33;;;;;;;5.00;4.00;;;23.00;49.60;;;;;;5043552;28;20262;-81
2023/06/29 05:42:01;;;;;;;8.82;4.00;;;23.10;49.20;;;;;;5038174;28;20204;-82
2023/06/29 05:44:28;;;;;;;5.15;3.95;;;23.30;48.80;;;;;;5037855;28;20192;-81
2023/06/29 05:46:55;;;;;;;6.43;4.13;;;23.30;48.90;;;;;;5038431;28;20200;-81
2023/06/29 05:49:23;;;;;;;6.05;3.67;;;23.30;49.10;;;;;;5038787;28;20239;-81
2023/06/29 05:51:51;;;;;;;6.35;4.00;;;23.30;49.00;;;;;;5038460;28;20200;-81
2023/06/29 05:54:18;;;;;;;5.55;3.80;;;23.40;49.40;;;;;;5039517;28;20211;-81
2023/06/29 05:56:47;;;;;;;6.80;3.53;;;23.50;48.80;;;;;;5038850;28;20222;-80
2023/06/29 05:59:14;;;;;;;4.68;3.20;;;23.70;48.30;;;;;;5145728;22;20689;-66
2023/06/29 06:01:41;;;;;;;4.82;3.40;;;23.90;47.60;;;;;;5034113;28;20205;-67
2023/06/29 06:04:08;;;;;;;5.88;3.53;;;24.10;47.20;;;;;;5034020;28;20216;-67
2023/06/29 06:06:36;;;;;;;3.97;2.78;;;24.30;46.80;;;;;;5035699;28;20216;-67
2023/06/29 06:09:04;;;;;;;3.67;3.10;;;24.50;46.50;;;;;;5035388;28;20231;-67
2023/06/29 06:11:31;;;;;;;7.38;2.90;;;24.70;46.20;;;;;;5035426;28;20196;-70
2023/06/29 06:14:00;;;;;;;4.35;3.10;;;24.80;45.90;;;;;;5033780;28;20216;-70
2023/06/29 06:16:28;;;;;;;4.13;3.30;;;24.90;45.60;;;;;;5035022;28;20238;-69
2023/06/29 06:18:55;;;;;;;3.88;2.78;;;25.10;45.30;;;;;;5033644;28;20220;-70
2023/06/29 06:21:23;;;;;;;3.83;3.22;;;25.20;45.10;;;;;;5033873;28;20566;-70
2023/06/29 06:23:51;;;;;;;4.00;2.90;;;25.30;44.90;;;;;;5033720;28;20232;-69
2023/06/29 06:26:18;;;;;;;5.80;2.92;;;25.40;44.60;;;;;;5033590;28;20291;-70
2023/06/29 06:28:45;;;;;;;4.68;2.80;;;25.50;44.40;;;;;;5033592;28;20538;-70
2023/06/29 06:31:14;;;;;;;5.05;2.88;;;25.60;44.20;;;;;;5034787;28;20756;-70
2023/06/29 06:33:41;;;;;;;3.75;2.88;;;25.70;43.90;;;;;;5033260;28;20740;-69
2023/06/29 06:36:09;;;;;;;3.88;2.92;;;25.80;43.80;;;;;;5033366;28;20231;-70
2023/06/29 06:38:35;;;;;;;3.90;2.90;;;25.90;43.60;;;;;;5034405;28;20259;-69
2023/06/29 06:41:03;;;;;;;4.95;2.90;;;26.00;43.50;;;;;;5033122;28;20214;-69
2023/06/29 06:43:30;;;;;;;4.18;2.92;;;26.00;43.30;;;;;;5033161;28;20226;-69
2023/06/29 06:45:59;;;;;;;3.83;2.83;;;26.10;43.10;;;;;;5033010;28;20195;-70
2023/06/29 06:48:28;;;;;;;3.15;2.60;;;26.20;42.90;;;;;;5033032;28;20577;-69
2023/06/29 06:50:56;;;;;;;2.97;2.70;;;26.30;42.60;;;;;;5034435;28;20589;-69
2023/06/29 06:53:23;;;;;;;2.72;2.50;;;26.40;42.50;;;;;;5034333;28;20212;-69
2023/06/29 06:55:50;;;;;;;3.88;2.85;;;26.40;42.40;;;;;;5032982;28;20207;-70
2023/06/29 06:58:17;;;;;;;3.00;2.70;;;26.50;42.30;;;;;;5032678;28;20222;-70
2023/06/29 07:00:45;;;;;;;3.10;2.47;;;26.50;42.20;;;;;;5032800;28;20204;-69
2023/06/29 07:03:12;;;;;;;3.22;2.40;;;26.60;42.10;;;;;;5063029;22;20234;-67
2023/06/29 07:05:41;;;;;;;2.80;2.50;;;26.70;42.60;;;;;;5032756;28;20204;-67
2023/06/29 07:08:08;;;;;;;3.15;2.60;;;26.70;41.80;;;;;;5032709;28;20627;-67
2023/06/29 07:10:35;;;;;;;3.50;2.60;;;26.70;41.70;;;;;;5032621;28;20199;-66
2023/06/29 07:13:03;;;;;;;3.13;2.40;;;26.80;41.70;;;;;;5032490;28;20211;-67
2023/06/29 07:15:30;;;;;;;3.10;2.72;;;26.90;41.60;;;;;;5033836;28;20187;-66
2023/06/29 07:17:57;;;;;;;2.88;2.58;;;27.00;41.50;;;;;;5032563;28;20199;-66
2023/06/29 07:20:24;;;;;;;2.97;2.67;;;27.10;41.40;;;;;;5032533;28;20203;-67
2023/06/29 07:22:53;;;;;;;2.50;2.30;;;27.10;41.30;;;;;;5033716;28;20192;-67
2023/06/29 07:25:20;;;;;;;2.70;2.50;;;27.20;41.20;;;;;;5032327;28;20782;-67
2023/06/29 07:27:47;;;;;;;2.95;2.65;;;27.20;41.10;;;;;;5032216;28;20204;-67
2023/06/29 07:30:16;;;;;;;2.72;2.42;;;27.20;41.00;;;;;;5032568;28;20242;-67
2023/06/29 07:32:43;;;;;;;2.80;2.60;;;27.30;41.00;;;;;;5033765;28;20191;-67
2023/06/29 07:35:11;;;;;;;2.83;2.47;;;27.30;40.90;;;;;;5032490;28;20246;-67
2023/06/29 07:37:38;;;;;;;4.20;2.97;;;27.30;41.00;;;;;;5032294;28;20627;-67
2023/06/29 07:40:09;;;;;;;2.70;2.50;;;27.20;41.10;;;;;;5032359;28;20218;-67
2023/06/29 07:42:36;;;;;;;3.65;2.75;;;27.10;41.30;;;;;;5032348;28;20191;-67
2023/06/29 07:45:05;;;;;;;4.70;2.63;;;27.10;41.50;;;;;;5033629;28;20216;-67
2023/06/29 07:47:32;;;;;;;2.55;2.35;;;27.00;41.50;;;;;;5032813;28;20245;-68
2023/06/29 07:49:59;;;;;;;3.45;2.50;;;27.00;41.60;;;;;;5034511;28;20737;-68
2023/06/29 07:52:26;;;;;;;2.97;2.70;;;27.00;41.50;;;;;;5033591;28;20199;-67
2023/06/29 07:54:54;;;;;;;3.55;2.60;;;27.10;41.40;;;;;;5034140;28;20379;-66
2023/06/29 07:57:22;;;;;;;2.78;2.58;;;27.10;41.30;;;;;;5032568;28;20242;-67
2023/06/29 07:59:49;;;;;;;3.22;2.67;;;27.10;41.10;;;;;;5033493;28;20226;-67
2023/06/29 08:02:17;;;;;;;2.75;2.40;;;27.20;41.10;;;;;;5032231;28;20605;-66
2023/06/29 08:04:44;;;;;;;2.80;2.60;;;27.20;41.10;;;;;;5031897;28;20254;-66
2023/06/29 08:07:12;;;;;;;2.50;2.30;;;27.20;41.10;;;;;;5033213;28;20219;-66
2023/06/29 08:09:40;;;;;;;2.90;2.10;;;27.20;41.00;;;;;;5031945;28;20191;-66
2023/06/29 08:12:08;;;;;;;2.60;2.40;;;27.20;40.80;;;;;;5031943;28;20549;-67
2023/06/29 08:14:38;;;;;;;2.35;2.15;;;27.30;40.60;;;;;;5033100;28;20215;-67
2023/06/29 08:17:06;;;;;;;2.42;2.22;;;27.50;40.50;;;;;;5031872;28;20620;-67
2023/06/29 08:19:33;;;;;;;3.30;2.55;;;27.50;40.50;;;;;;5031706;28;20211;-66
2023/06/29 08:22:01;;;;;;;2.78;2.40;;;27.40;40.40;;;;;;5032878;28;20279;-67
2023/06/29 08:24:28;;;;;;;2.60;2.40;;;27.40;40.60;;;;;;5032972;28;20212;-67
2023/06/29 08:26:55;;;;;;;3.63;2.60;;;27.20;40.80;;;;;;5033171;28;20661;-66
2023/06/29 08:29:22;;;;;;;2.38;2.20;;;27.20;41.10;;;;;;5031879;28;20219;-67
2023/06/29 08:31:51;;;;;;;3.00;2.60;;;27.10;41.20;;;;;;5031742;28;20206;-67
2023/06/29 08:34:18;;;;;;;2.80;2.42;;;27.00;41.30;;;;;;5031624;28;20215;-67
2023/06/29 08:36:46;;;;;;;2.72;2.53;;;27.00;41.50;;;;;;5031940;28;20203;-67
2023/06/29 08:39:13;;;;;;;3.22;2.53;;;27.00;41.60;;;;;;5032008;28;20219;-67
2023/06/29 08:41:41;;;;;;;2.88;2.45;;;26.90;41.80;;;;;;5031811;28;20249;-67
2023/06/29 08:44:08;;;;;;;2.53;2.33;;;26.90;41.80;;;;;;5033560;28;20610;-67
2023/06/29 08:46:37;;;;;;;3.22;2.47;;;26.90;41.80;;;;;;5032546;28;20636;-67
2023/06/29 08:49:05;;;;;;;3.05;2.60;;;26.80;41.70;;;;;;5031954;28;20294;-66
2023/06/29 08:51:34;;;;;;;2.88;2.58;;;26.90;42.40;;;;;;5035057;28;20183;-66
2023/06/29 08:54:02;;;;;;;2.60;2.40;;;26.90;41.80;;;;;;5033387;28;20237;-67
2023/06/29 08:56:29;;;;;;;2.60;2.40;;;27.00;41.70;;;;;;5034234;28;20208;-67
2023/06/29 08:58:58;;;;;;;2.60;2.40;;;27.10;41.40;;;;;;5031927;28;20223;-66
2023/06/29 09:01:26;;;;;;;2.72;2.40;;;27.20;41.10;;;;;;5032271;28;20219;-67
2023/06/29 09:03:54;;;;;;;2.35;2.15;;;27.30;40.80;;;;;;5032221;28;20227;-67
2023/06/29 09:06:23;;;;;;;2.42;2.22;;;27.40;40.60;;;;;;5033826;28;20195;-67
2023/06/29 09:08:51;;;;;;;2.33;2.10;;;27.50;40.50;;;;;;5034842;28;20230;-66
2023/06/29 09:11:18;;;;;;;2.50;2.30;;;27.50;40.40;;;;;;5035385;28;20199;-67
2023/06/29 09:13:46;;;;;;;2.97;2.08;;;27.60;40.20;;;;;;5034808;28;20701;-66
2023/06/29 09:16:15;;;;;;;2.40;2.20;;;27.70;40.00;;;;;;5034915;28;20200;-67
2023/06/29 09:18:42;;;;;;;2.65;2.20;;;27.80;39.90;;;;;;5036084;28;20208;-67
2023/06/29 09:21:10;;;;;;;2.55;2.30;;;27.90;39.80;;;;;;5034568;28;20274;-67
2023/06/29 09:23:41;;;;;;;2.65;2.45;;;27.90;39.80;;;;;;5034662;28;20246;-67
2023/06/29 09:26:08;;;;;;;2.95;2.42;;;27.80;39.80;;;;;;5034669;28;20637;-67
2023/06/29 09:28:36;;;;;;;3.78;2.63;;;27.80;39.90;;;;;;5034646;28;20278;-67
2023/06/29 09:31:08;;;;;;;2.10;1.92;;;27.80;40.00;;;;;;5034614;28;20199;-67
2023/06/29 09:33:35;;;;;;;2.25;2.05;;;27.80;39.90;;;;;;5034498;28;20215;-67
2023/06/29 09:36:06;;;;;;;2.70;2.50;;;27.80;39.70;;;;;;5034412;28;20196;-66
2023/06/29 09:38:34;;;;;;;2.38;2.15;;;27.80;39.70;;;;;;5035837;28;20542;-67
2023/06/29 09:41:03;;;;;;;2.65;2.40;;;27.80;39.70;;;;;;5034529;28;20207;-67
2023/06/29 09:43:31;;;;;;;2.10;2.00;;;27.80;39.90;;;;;;5034288;28;20600;-66
2023/06/29 09:46:06;;;;;;;2.40;2.20;;;27.70;39.80;;;;;;5034207;28;20257;-67
2023/06/29 09:48:33;;;;;;;2.40;2.20;;;27.70;40.00;;;;;;5034185;28;20213;-66
2023/06/29 09:51:00;;;;;;;3.05;2.40;;;27.60;40.00;;;;;;5035274;28;20187;-66
2023/06/29 09:53:31;;;;;;;2.30;2.10;;;27.70;40.00;;;;;;5035562;28;20218;-67
2023/06/29 09:55:59;;;;;;;2.50;2.30;;;27.70;39.90;;;;;;5034068;28;20191;-66
2023/06/29 09:58:29;;;;;;;2.50;2.30;;;27.70;40.00;;;;;;5033931;28;20206;-67
2023/06/29 10:00:58;;;;;;;2.47;2.15;;;27.60;39.90;;;;;;5033680;28;20211;-66
2023/06/29 10:03:25;;;;;;;2.08;1.98;;;27.60;40.10;;;;;;5033804;28;20219;-65
2023/06/29 10:05:52;;;;;;;2.42;2.22;;;27.50;40.20;;;;;;5033888;28;20200;-67
2023/06/29 10:08:19;;;;;;;2.35;2.15;;;27.50;40.30;;;;;;5033771;28;20209;-68
2023/06/29 10:10:47;;;;;;;2.10;2.00;;;27.50;40.30;;;;;;5033813;28;20203;-68
2023/06/29 10:13:14;;;;;;;2.45;2.25;;;27.50;40.20;;;;;;5033616;28;20195;-68
2023/06/29 10:15:43;;;;;;;2.20;2.08;;;27.50;40.20;;;;;;5034820;28;20723;-68
2023/06/29 10:18:11;;;;;;;2.58;2.28;;;27.50;40.20;;;;;;5033641;28;20246;-68
2023/06/29 10:20:40;;;;;;;2.60;2.40;;;27.60;40.20;;;;;;5034095;28;20243;-69
2023/06/29 10:23:07;;;;;;;2.30;2.10;;;27.60;40.30;;;;;;5033667;28;20246;-67
2023/06/29 10:25:36;;;;;;;2.38;2.17;;;27.60;40.30;;;;;;5033423;28;20200;-68
2023/06/29 10:28:04;;;;;;;2.20;2.00;;;27.60;40.10;;;;;;5034709;28;20206;-69
2023/06/29 10:30:45;;;;;;;2.10;1.92;;;27.60;40.10;;;;;;5033304;28;20202;-68
2023/06/29 10:33:13;;;;;;;2.13;2.03;;;27.60;40.10;;;;;;5033598;28;20619;-69
2023/06/29 10:35:40;;;;;;;2.30;2.10;;;27.60;40.10;;;;;;5033341;28;20211;-68
2023/06/29 10:38:12;;;;;;;2.17;1.98;;;27.60;40.10;;;;;;5033320;28;20199;-67
2023/06/29 10:40:47;;;;;;;2.10;1.90;;;27.60;40.20;;;;;;5033262;28;20219;-67
2023/06/29 10:43:15;;;;;;;2.35;2.15;;;27.60;40.20;;;;;;5034857;28;20176;-67
2023/06/29 10:45:42;;;;;;;2.10;2.00;;;27.60;40.20;;;;;;5034541;28;20187;-66
2023/06/29 10:48:13;;;;;;;2.33;2.13;;;27.60;40.20;;;;;;5034656;28;20198;-66
2023/06/29 10:50:41;;;;;;;2.47;2.28;;;27.60;40.30;;;;;;5034533;28;20191;-66
2023/06/29 10:53:10;;;;;;;2.40;2.20;;;27.60;40.30;;;;;;5034680;28;20199;-65
2023/06/29 10:55:42;;;;;;;2.45;2.25;;;27.50;40.30;;;;;;5033465;28;20221;-65
2023/06/29 10:58:18;;;;;;;2.40;2.20;;;27.40;40.30;;;;;;5034890;28;20280;-65
2023/06/29 11:00:46;;;;;;;2.28;2.08;;;27.40;40.50;;;;;;5033281;28;20214;-66
2023/06/29 11:03:15;;;;;;;2.35;2.15;;;27.40;40.60;;;;;;5033779;28;20302;-65
2023/06/29 11:05:43;;;;;;;1.98;1.88;;;27.40;40.70;;;;;;5034534;28;20188;-66
2023/06/29 11:08:10;;;;;;;2.00;1.90;;;27.30;40.80;;;;;;5034995;28;20191;-66
2023/06/29 11:10:38;;;;;;;1.95;1.85;;;27.20;40.80;;;;;;5033637;28;20191;-67
2023/06/29 11:13:09;;;;;;;2.30;2.10;;;27.30;40.90;;;;;;5033093;28;20269;-66
2023/06/29 11:15:37;;;;;;;2.58;2.33;;;27.30;41.00;;;;;;5033146;28;20735;-66
2023/06/29 11:18:05;;;;;;;2.15;1.95;;;27.30;41.00;;;;;;5033157;28;20198;-66
2023/06/29 11:20:36;;;;;;;2.50;2.30;;;27.20;41.00;;;;;;5032502;28;20218;-66
2023/06/29 11:23:03;;;;;;;2.10;1.90;;;27.20;41.10;;;;;;5032699;28;20200;-65
2023/06/29 11:25:31;;;;;;;2.00;1.90;;;27.20;41.10;;;;;;5033707;28;20198;-65
2023/06/29 11:27:58;;;;;;;2.47;2.28;;;27.20;41.10;;;;;;5032016;28;20202;-65
2023/06/29 11:30:26;;;;;;;2.30;2.10;;;27.20;41.20;;;;;;5032737;28;20187;-65
2023/06/29 11:32:53;;;;;;;1.85;1.75;;;27.20;41.20;;;;;;5032612;28;20203;-68
2023/06/29 11:35:22;;;;;;;2.05;1.85;;;27.20;41.20;;;;;;5033524;28;20211;-66
2023/06/29 11:37:51;;;;;;;2.28;2.17;;;27.20;41.20;;;;;;5032242;28;20240;-65
2023/06/29 11:40:20;;;;;;;2.40;2.20;;;27.20;41.30;;;;;;5032064;28;20218;-67
2023/06/29 11:42:48;;;;;;;2.22;1.90;;;27.20;41.30;;;;;;5032284;28;20282;-68
2023/06/29 11:45:16;;;;;;;2.03;1.92;;;27.20;41.30;;;;;;5032135;28;20717;-66
2023/06/29 11:47:46;;;;;;;2.15;1.95;;;27.20;41.40;;;;;;5032482;28;20231;-66
2023/06/29 11:50:16;;;;;;;2.28;2.08;;;27.20;41.30;;;;;;5032171;28;20199;-65
2023/06/29 11:52:45;;;;;;;2.15;1.95;;;27.20;41.40;;;;;;5033478;28;20674;-67
2023/06/29 11:55:15;;;;;;;2.40;2.20;;;27.20;41.30;;;;;;5031877;28;20219;-66
2023/06/29 11:57:43;;;;;;;2.30;2.10;;;27.20;41.30;;;;;;5033476;28;20274;-67
2023/06/29 12:00:32;;;;;;;2.10;2.00;;;27.20;41.30;;;;;;5032012;28;20237;-67
2023/06/29 12:03:07;;;;;;;2.03;1.92;;;27.20;41.30;;;;;;5045480;28;20180;-73
2023/06/29 12:05:35;;;;;;;2.45;2.15;;;27.20;41.30;;;;;;5033228;28;20226;-67
2023/06/29 12:08:05;;;;;;;2.05;1.90;;;27.20;41.30;;;;;;5031813;28;20198;-67
2023/06/29 12:10:37;;;;;;;2.20;2.00;;;27.20;41.40;;;;;;5031699;28;20191;-66
2023/06/29 12:13:04;;;;;;;2.00;1.90;;;27.20;41.40;;;;;;5031705;28;20530;-67
2023/06/29 12:15:32;;;;;;;1.80;1.70;;;27.20;41.40;;;;;;5033198;28;20270;-66
2023/06/29 12:18:00;;;;;;;1.98;1.88;;;27.20;41.40;;;;;;5031913;28;20652;-65
2023/06/29 12:20:27;;;;;;;2.08;1.98;;;27.20;41.40;;;;;;5031688;28;20700;-66
2023/06/29 12:22:54;;;;;;;1.88;1.77;;;27.20;42.10;;;;;;5032037;28;20217;-66
2023/06/29 12:25:21;;;;;;;2.25;2.10;;;27.20;41.40;;;;;;5031671;28;20269;-65
2023/06/29 12:27:50;;;;;;;2.50;2.30;;;27.20;41.40;;;;;;5031752;28;20238;-65
2023/06/29 12:30:21;;;;;;;2.08;1.90;;;27.20;41.40;;;;;;5031637;28;20246;-65
2023/06/29 12:32:49;;;;;;;2.28;2.00;;;27.20;41.40;;;;;;5032096;28;20253;-66
2023/06/29 12:35:15;;;;;;;2.08;1.98;;;27.20;41.40;;;;;;5032793;28;20215;-66
2023/06/29 12:37:43;;;;;;;2.20;2.10;;;27.20;41.40;;;;;;5031607;28;20199;-65
2023/06/29 12:40:11;;;;;;;2.13;1.92;;;27.20;41.40;;;;;;5033854;28;20231;-66
2023/06/29 12:42:38;;;;;;;2.28;2.08;;;27.20;41.50;;;;;;5035453;28;20191;-66
2023/06/29 12:45:09;;;;;;;2.00;1.85;;;27.20;41.50;;;;;;5035712;28;20787;-66
2023/06/29 12:47:37;;;;;;;2.33;2.13;;;27.20;41.60;;;;;;5036871;28;20176;-66
2023/06/29 12:50:05;;;;;;;2.25;2.05;;;27.20;41.60;;;;;;5036470;28;20187;-66
2023/06/29 12:52:32;;;;;;;2.30;2.10;;;27.20;41.60;;;;;;5035282;28;20669;-67